sensor_id;sensor_type;location;lat;lon;timestamp;temperature;humidity
19106;DHT22;9685;54.338;18.672;2024-02-04T00:02:06;7.40;86.90
19106;DHT22;9685;54.338;18.672;2024-02-04T00:04:35;7.40;86.50
19106;DHT22;9685;54.338;18.672;2024-02-04T00:07:02;7.50;87.30
19106;DHT22;9685;54.338;18.672;2024-02-04T00:09:29;7.50;85.70
19106;DHT22;9685;54.338;18.672;2024-02-04T00:11:56;7.60;85.90
19106;DHT22;9685;54.338;18.672;2024-02-04T00:14:25;7.40;85.00
19106;DHT22;9685;54.338;18.672;2024-02-04T00:16:52;7.50;86.10
19106;DHT22;9685;54.338;18.672;2024-02-04T00:19:19;7.40;86.90
19106;DHT22;9685;54.338;18.672;2024-02-04T00:21:46;7.40;85.80
19106;DHT22;9685;54.338;18.672;2024-02-04T00:24:13;7.50;86.70
19106;DHT22;9685;54.338;18.672;2024-02-04T00:26:40;7.40;86.90
19106;DHT22;9685;54.338;18.672;2024-02-04T00:29:07;7.40;86.20
19106;DHT22;9685;54.338;18.672;2024-02-04T00:31:35;7.40;85.10
19106;DHT22;9685;54.338;18.672;2024-02-04T00:34:02;7.40;86.90
19106;DHT22;9685;54.338;18.672;2024-02-04T00:36:30;7.50;85.30
19106;DHT22;9685;54.338;18.672;2024-02-04T00:38:57;7.50;85.20
19106;DHT22;9685;54.338;18.672;2024-02-04T00:41:24;7.60;84.80
19106;DHT22;9685;54.338;18.672;2024-02-04T00:43:51;7.60;84.20
19106;DHT22;9685;54.338;18.672;2024-02-04T00:46:18;7.40;83.70
19106;DHT22;9685;54.338;18.672;2024-02-04T00:48:47;7.40;82.00
19106;DHT22;9685;54.338;18.672;2024-02-04T00:51:14;7.30;85.00
19106;DHT22;9685;54.338;18.672;2024-02-04T00:53:42;7.30;83.60
19106;DHT22;9685;54.338;18.672;2024-02-04T00:56:09;7.40;83.60
19106;DHT22;9685;54.338;18.672;2024-02-04T00:58:36;7.40;82.80
19106;DHT22;9685;54.338;18.672;2024-02-04T01:01:03;7.40;83.60
19106;DHT22;9685;54.338;18.672;2024-02-04T01:03:31;7.40;84.10
19106;DHT22;9685;54.338;18.672;2024-02-04T01:05:59;7.30;82.40
19106;DHT22;9685;54.338;18.672;2024-02-04T01:08:26;7.20;84.00
19106;DHT22;9685;54.338;18.672;2024-02-04T01:10:53;7.30;82.60
19106;DHT22;9685;54.338;18.672;2024-02-04T01:13:20;7.30;83.10
19106;DHT22;9685;54.338;18.672;2024-02-04T01:15:47;7.20;81.70
19106;DHT22;9685;54.338;18.672;2024-02-04T01:18:14;7.30;82.90
19106;DHT22;9685;54.338;18.672;2024-02-04T01:20:41;7.30;84.60
19106;DHT22;9685;54.338;18.672;2024-02-04T01:23:09;7.20;83.70
19106;DHT22;9685;54.338;18.672;2024-02-04T01:25:35;7.30;82.10
19106;DHT22;9685;54.338;18.672;2024-02-04T01:28:02;7.30;84.60
19106;DHT22;9685;54.338;18.672;2024-02-04T01:30:29;7.30;86.40
19106;DHT22;9685;54.338;18.672;2024-02-04T01:32:57;7.30;99.90
19106;DHT22;9685;54.338;18.672;2024-02-04T01:35:24;7.30;83.10
19106;DHT22;9685;54.338;18.672;2024-02-04T01:37:50;7.40;81.80
19106;DHT22;9685;54.338;18.672;2024-02-04T01:40:19;7.40;84.00
19106;DHT22;9685;54.338;18.672;2024-02-04T01:42:46;7.30;84.10
19106;DHT22;9685;54.338;18.672;2024-02-04T01:45:12;7.20;83.30
19106;DHT22;9685;54.338;18.672;2024-02-04T01:47:39;7.30;84.80
19106;DHT22;9685;54.338;18.672;2024-02-04T01:50:07;7.30;83.90
19106;DHT22;9685;54.338;18.672;2024-02-04T01:52:36;7.30;85.40
19106;DHT22;9685;54.338;18.672;2024-02-04T01:55:05;7.30;85.00
19106;DHT22;9685;54.338;18.672;2024-02-04T01:57:33;8.00;83.70
19106;DHT22;9685;54.338;18.672;2024-02-04T02:00:02;7.30;82.70
19106;DHT22;9685;54.338;18.672;2024-02-04T02:02:30;7.40;83.50
19106;DHT22;9685;54.338;18.672;2024-02-04T02:04:57;7.20;82.10
19106;DHT22;9685;54.338;18.672;2024-02-04T02:07:24;7.30;82.00
19106;DHT22;9685;54.338;18.672;2024-02-04T02:09:53;7.30;80.70
19106;DHT22;9685;54.338;18.672;2024-02-04T02:12:24;7.20;81.90
19106;DHT22;9685;54.338;18.672;2024-02-04T02:14:58;7.20;83.70
19106;DHT22;9685;54.338;18.672;2024-02-04T02:17:32;7.10;83.10
19106;DHT22;9685;54.338;18.672;2024-02-04T02:20:04;7.00;83.40
19106;DHT22;9685;54.338;18.672;2024-02-04T02:22:39;7.00;85.70
19106;DHT22;9685;54.338;18.672;2024-02-04T02:25:13;7.10;84.60
19106;DHT22;9685;54.338;18.672;2024-02-04T02:27:46;7.10;83.40
19106;DHT22;9685;54.338;18.672;2024-02-04T02:30:14;7.10;84.90
19106;DHT22;9685;54.338;18.672;2024-02-04T02:32:42;7.20;82.70
19106;DHT22;9685;54.338;18.672;2024-02-04T02:35:10;7.00;83.90
19106;DHT22;9685;54.338;18.672;2024-02-04T02:37:41;7.10;82.40
19106;DHT22;9685;54.338;18.672;2024-02-04T02:40:16;7.20;85.40
19106;DHT22;9685;54.338;18.672;2024-02-04T02:42:46;7.10;85.00
19106;DHT22;9685;54.338;18.672;2024-02-04T02:45:14;7.10;84.20
19106;DHT22;9685;54.338;18.672;2024-02-04T02:47:42;7.10;84.50
19106;DHT22;9685;54.338;18.672;2024-02-04T02:50:10;7.00;85.60
19106;DHT22;9685;54.338;18.672;2024-02-04T02:52:38;7.00;85.10
19106;DHT22;9685;54.338;18.672;2024-02-04T02:55:05;7.10;84.80
19106;DHT22;9685;54.338;18.672;2024-02-04T02:57:34;7.00;85.60
19106;DHT22;9685;54.338;18.672;2024-02-04T03:00:00;7.00;84.90
19106;DHT22;9685;54.338;18.672;2024-02-04T03:02:29;7.10;85.10
19106;DHT22;9685;54.338;18.672;2024-02-04T03:04:55;7.10;83.90
19106;DHT22;9685;54.338;18.672;2024-02-04T03:07:22;7.10;84.60
19106;DHT22;9685;54.338;18.672;2024-02-04T03:09:49;7.10;85.00
19106;DHT22;9685;54.338;18.672;2024-02-04T03:12:16;7.10;85.00
19106;DHT22;9685;54.338;18.672;2024-02-04T03:14:44;7.10;85.60
19106;DHT22;9685;54.338;18.672;2024-02-04T03:17:11;7.20;84.90
19106;DHT22;9685;54.338;18.672;2024-02-04T03:19:39;7.10;85.30
19106;DHT22;9685;54.338;18.672;2024-02-04T03:22:05;7.20;83.80
19106;DHT22;9685;54.338;18.672;2024-02-04T03:24:32;7.20;84.70
19106;DHT22;9685;54.338;18.672;2024-02-04T03:26:59;7.10;82.40
19106;DHT22;9685;54.338;18.672;2024-02-04T03:29:26;7.20;84.60
19106;DHT22;9685;54.338;18.672;2024-02-04T03:31:56;7.20;86.40
19106;DHT22;9685;54.338;18.672;2024-02-04T03:34:23;7.10;86.40
19106;DHT22;9685;54.338;18.672;2024-02-04T03:36:49;7.10;84.30
19106;DHT22;9685;54.338;18.672;2024-02-04T03:39:16;7.10;85.50
19106;DHT22;9685;54.338;18.672;2024-02-04T03:41:43;7.20;84.30
19106;DHT22;9685;54.338;18.672;2024-02-04T03:44:10;7.00;85.40
19106;DHT22;9685;54.338;18.672;2024-02-04T03:46:37;7.00;85.70
19106;DHT22;9685;54.338;18.672;2024-02-04T03:49:07;7.00;84.80
19106;DHT22;9685;54.338;18.672;2024-02-04T03:51:34;7.00;88.00
19106;DHT22;9685;54.338;18.672;2024-02-04T03:54:01;7.10;86.30
19106;DHT22;9685;54.338;18.672;2024-02-04T03:56:28;7.10;85.70
19106;DHT22;9685;54.338;18.672;2024-02-04T03:58:54;7.00;87.10
19106;DHT22;9685;54.338;18.672;2024-02-04T04:01:21;7.00;87.50
19106;DHT22;9685;54.338;18.672;2024-02-04T04:03:49;7.00;87.00
19106;DHT22;9685;54.338;18.672;2024-02-04T04:06:17;7.10;87.10
19106;DHT22;9685;54.338;18.672;2024-02-04T04:08:44;7.10;88.00
19106;DHT22;9685;54.338;18.672;2024-02-04T04:11:11;7.00;86.40
19106;DHT22;9685;54.338;18.672;2024-02-04T04:13:38;7.00;86.80
19106;DHT22;9685;54.338;18.672;2024-02-04T04:16:06;7.10;84.80
19106;DHT22;9685;54.338;18.672;2024-02-04T04:18:33;7.10;87.70
19106;DHT22;9685;54.338;18.672;2024-02-04T04:21:00;7.10;85.70
19106;DHT22;9685;54.338;18.672;2024-02-04T04:23:29;7.10;87.10
19106;DHT22;9685;54.338;18.672;2024-02-04T04:25:55;7.10;84.40
19106;DHT22;9685;54.338;18.672;2024-02-04T04:28:22;7.00;84.30
19106;DHT22;9685;54.338;18.672;2024-02-04T04:30:49;6.90;85.00
19106;DHT22;9685;54.338;18.672;2024-02-04T04:33:16;7.00;84.50
19106;DHT22;9685;54.338;18.672;2024-02-04T04:35:43;7.00;84.20
19106;DHT22;9685;54.338;18.672;2024-02-04T04:38:10;7.00;83.90
19106;DHT22;9685;54.338;18.672;2024-02-04T04:40:38;7.00;84.20
19106;DHT22;9685;54.338;18.672;2024-02-04T04:43:06;7.20;84.00
19106;DHT22;9685;54.338;18.672;2024-02-04T04:45:33;7.20;82.80
19106;DHT22;9685;54.338;18.672;2024-02-04T04:47:59;7.20;83.00
19106;DHT22;9685;54.338;18.672;2024-02-04T04:50:27;7.20;82.50
19106;DHT22;9685;54.338;18.672;2024-02-04T04:52:54;7.20;83.30
19106;DHT22;9685;54.338;18.672;2024-02-04T04:55:20;7.20;82.60
19106;DHT22;9685;54.338;18.672;2024-02-04T04:57:49;7.20;82.90
19106;DHT22;9685;54.338;18.672;2024-02-04T05:00:16;7.10;82.80
19106;DHT22;9685;54.338;18.672;2024-02-04T05:02:43;7.10;85.10
19106;DHT22;9685;54.338;18.672;2024-02-04T05:05:10;7.20;79.60
19106;DHT22;9685;54.338;18.672;2024-02-04T05:07:37;7.20;83.00
19106;DHT22;9685;54.338;18.672;2024-02-04T05:10:05;7.20;82.00
19106;DHT22;9685;54.338;18.672;2024-02-04T05:12:33;7.20;84.30
19106;DHT22;9685;54.338;18.672;2024-02-04T05:15:01;7.20;80.20
19106;DHT22;9685;54.338;18.672;2024-02-04T05:17:29;7.10;80.70
19106;DHT22;9685;54.338;18.672;2024-02-04T05:19:56;7.20;82.10
19106;DHT22;9685;54.338;18.672;2024-02-04T05:22:22;7.20;80.40
19106;DHT22;9685;54.338;18.672;2024-02-04T05:24:49;7.20;79.80
19106;DHT22;9685;54.338;18.672;2024-02-04T05:27:16;7.20;79.70
19106;DHT22;9685;54.338;18.672;2024-02-04T05:29:43;7.10;79.80
19106;DHT22;9685;54.338;18.672;2024-02-04T05:32:11;7.20;79.50
19106;DHT22;9685;54.338;18.672;2024-02-04T05:34:38;7.10;79.10
19106;DHT22;9685;54.338;18.672;2024-02-04T05:37:05;7.10;79.40
19106;DHT22;9685;54.338;18.672;2024-02-04T05:39:32;7.10;78.60
19106;DHT22;9685;54.338;18.672;2024-02-04T05:41:59;7.10;79.80
19106;DHT22;9685;54.338;18.672;2024-02-04T05:44:26;7.10;79.20
19106;DHT22;9685;54.338;18.672;2024-02-04T05:46:53;7.10;78.80
19106;DHT22;9685;54.338;18.672;2024-02-04T05:49:22;7.20;79.50
19106;DHT22;9685;54.338;18.672;2024-02-04T05:51:48;7.20;79.60
19106;DHT22;9685;54.338;18.672;2024-02-04T05:54:15;7.10;97.00
19106;DHT22;9685;54.338;18.672;2024-02-04T05:56:42;7.20;80.20
19106;DHT22;9685;54.338;18.672;2024-02-04T05:59:09;7.20;79.60
19106;DHT22;9685;54.338;18.672;2024-02-04T06:01:36;7.20;80.60
19106;DHT22;9685;54.338;18.672;2024-02-04T06:04:03;7.20;81.10
19106;DHT22;9685;54.338;18.672;2024-02-04T06:06:31;7.20;82.10
19106;DHT22;9685;54.338;18.672;2024-02-04T06:08:58;7.20;81.30
19106;DHT22;9685;54.338;18.672;2024-02-04T06:11:25;7.20;80.80
19106;DHT22;9685;54.338;18.672;2024-02-04T06:13:52;7.20;82.00
19106;DHT22;9685;54.338;18.672;2024-02-04T06:16:19;7.20;81.70
19106;DHT22;9685;54.338;18.672;2024-02-04T06:18:46;7.40;82.90
19106;DHT22;9685;54.338;18.672;2024-02-04T06:21:13;7.30;82.30
19106;DHT22;9685;54.338;18.672;2024-02-04T06:23:41;7.30;82.90
19106;DHT22;9685;54.338;18.672;2024-02-04T06:26:08;7.40;83.20
19106;DHT22;9685;54.338;18.672;2024-02-04T06:28:35;7.40;83.00
19106;DHT22;9685;54.338;18.672;2024-02-04T06:31:02;7.40;83.00
19106;DHT22;9685;54.338;18.672;2024-02-04T06:33:29;7.40;83.60
19106;DHT22;9685;54.338;18.672;2024-02-04T06:35:56;7.40;83.70
19106;DHT22;9685;54.338;18.672;2024-02-04T06:38:23;7.30;85.00
19106;DHT22;9685;54.338;18.672;2024-02-04T06:40:51;7.20;86.90
19106;DHT22;9685;54.338;18.672;2024-02-04T06:43:18;7.30;86.70
19106;DHT22;9685;54.338;18.672;2024-02-04T06:45:45;7.30;91.20
19106;DHT22;9685;54.338;18.672;2024-02-04T06:48:13;7.20;95.10
19106;DHT22;9685;54.338;18.672;2024-02-04T06:50:39;7.10;96.20
19106;DHT22;9685;54.338;18.672;2024-02-04T06:53:09;7.20;98.60
19106;DHT22;9685;54.338;18.672;2024-02-04T06:55:36;7.00;99.90
19106;DHT22;9685;54.338;18.672;2024-02-04T06:58:04;7.00;99.90
19106;DHT22;9685;54.338;18.672;2024-02-04T07:00:31;7.00;99.90
19106;DHT22;9685;54.338;18.672;2024-02-04T07:02:58;6.90;99.90
19106;DHT22;9685;54.338;18.672;2024-02-04T07:05:25;6.90;99.90
19106;DHT22;9685;54.338;18.672;2024-02-04T07:07:52;7.00;99.90
19106;DHT22;9685;54.338;18.672;2024-02-04T07:10:18;7.00;99.90
19106;DHT22;9685;54.338;18.672;2024-02-04T07:12:45;7.00;99.90
19106;DHT22;9685;54.338;18.672;2024-02-04T07:15:14;7.00;99.90
19106;DHT22;9685;54.338;18.672;2024-02-04T07:17:40;6.90;99.90
19106;DHT22;9685;54.338;18.672;2024-02-04T07:20:08;6.90;99.90
19106;DHT22;9685;54.338;18.672;2024-02-04T07:22:35;6.90;99.90
19106;DHT22;9685;54.338;18.672;2024-02-04T07:25:02;6.90;99.90
19106;DHT22;9685;54.338;18.672;2024-02-04T07:27:29;7.00;99.90
19106;DHT22;9685;54.338;18.672;2024-02-04T07:29:56;6.90;99.90
19106;DHT22;9685;54.338;18.672;2024-02-04T07:32:25;6.90;99.90
19106;DHT22;9685;54.338;18.672;2024-02-04T07:34:51;6.90;99.90
19106;DHT22;9685;54.338;18.672;2024-02-04T07:37:18;6.90;99.90
19106;DHT22;9685;54.338;18.672;2024-02-04T07:39:45;6.80;99.90
19106;DHT22;9685;54.338;18.672;2024-02-04T07:42:12;6.70;99.90
19106;DHT22;9685;54.338;18.672;2024-02-04T07:44:39;6.70;99.90
19106;DHT22;9685;54.338;18.672;2024-02-04T07:47:06;6.80;99.90
19106;DHT22;9685;54.338;18.672;2024-02-04T07:49:34;6.80;99.90
19106;DHT22;9685;54.338;18.672;2024-02-04T07:52:01;6.70;99.90
19106;DHT22;9685;54.338;18.672;2024-02-04T07:54:29;6.70;99.90
19106;DHT22;9685;54.338;18.672;2024-02-04T07:56:56;6.70;99.90
19106;DHT22;9685;54.338;18.672;2024-02-04T07:59:22;6.70;99.90
19106;DHT22;9685;54.338;18.672;2024-02-04T08:01:49;6.60;99.90
19106;DHT22;9685;54.338;18.672;2024-02-04T08:04:16;6.60;99.90
19106;DHT22;9685;54.338;18.672;2024-02-04T08:06:44;6.70;99.90
19106;DHT22;9685;54.338;18.672;2024-02-04T08:09:11;6.80;99.90
19106;DHT22;9685;54.338;18.672;2024-02-04T08:11:38;6.80;99.90
19106;DHT22;9685;54.338;18.672;2024-02-04T08:14:05;6.80;99.90
19106;DHT22;9685;54.338;18.672;2024-02-04T08:16:32;6.80;99.90
19106;DHT22;9685;54.338;18.672;2024-02-04T08:18:59;6.80;99.90
19106;DHT22;9685;54.338;18.672;2024-02-04T08:21:26;6.80;99.90
19106;DHT22;9685;54.338;18.672;2024-02-04T08:23:54;6.90;99.90
19106;DHT22;9685;54.338;18.672;2024-02-04T08:26:21;6.80;99.90
19106;DHT22;9685;54.338;18.672;2024-02-04T08:28:48;6.80;99.90
19106;DHT22;9685;54.338;18.672;2024-02-04T08:31:15;6.90;99.90
19106;DHT22;9685;54.338;18.672;2024-02-04T08:33:42;6.90;99.90
19106;DHT22;9685;54.338;18.672;2024-02-04T08:36:09;6.90;99.90
19106;DHT22;9685;54.338;18.672;2024-02-04T08:38:36;6.90;99.90
19106;DHT22;9685;54.338;18.672;2024-02-04T08:41:05;6.80;99.90
19106;DHT22;9685;54.338;18.672;2024-02-04T08:43:31;6.70;99.90
19106;DHT22;9685;54.338;18.672;2024-02-04T08:45:58;6.70;99.90
19106;DHT22;9685;54.338;18.672;2024-02-04T08:48:25;6.80;99.90
19106;DHT22;9685;54.338;18.672;2024-02-04T08:50:52;6.80;99.90
19106;DHT22;9685;54.338;18.672;2024-02-04T08:53:20;6.80;99.90
19106;DHT22;9685;54.338;18.672;2024-02-04T08:55:47;6.80;99.90
19106;DHT22;9685;54.338;18.672;2024-02-04T08:58:15;6.70;99.90
19106;DHT22;9685;54.338;18.672;2024-02-04T09:00:42;6.60;99.90
19106;DHT22;9685;54.338;18.672;2024-02-04T09:03:09;6.60;99.90
19106;DHT22;9685;54.338;18.672;2024-02-04T09:05:36;6.50;99.90
19106;DHT22;9685;54.338;18.672;2024-02-04T09:08:03;6.50;99.90
19106;DHT22;9685;54.338;18.672;2024-02-04T09:10:30;6.50;99.90
19106;DHT22;9685;54.338;18.672;2024-02-04T09:12:57;6.60;99.90
19106;DHT22;9685;54.338;18.672;2024-02-04T09:15:25;6.50;99.90
19106;DHT22;9685;54.338;18.672;2024-02-04T09:17:52;6.60;99.90
19106;DHT22;9685;54.338;18.672;2024-02-04T09:20:19;6.60;99.90
19106;DHT22;9685;54.338;18.672;2024-02-04T09:22:46;6.60;99.90
19106;DHT22;9685;54.338;18.672;2024-02-04T09:25:13;6.60;99.90
19106;DHT22;9685;54.338;18.672;2024-02-04T09:27:40;6.70;99.90
19106;DHT22;9685;54.338;18.672;2024-02-04T09:30:07;6.70;99.90
19106;DHT22;9685;54.338;18.672;2024-02-04T09:32:36;6.70;99.90
19106;DHT22;9685;54.338;18.672;2024-02-04T09:35:03;6.80;99.90
19106;DHT22;9685;54.338;18.672;2024-02-04T09:37:30;6.80;99.90
19106;DHT22;9685;54.338;18.672;2024-02-04T09:39:57;6.80;99.90
19106;DHT22;9685;54.338;18.672;2024-02-04T09:42:24;6.80;99.90
19106;DHT22;9685;54.338;18.672;2024-02-04T09:44:53;6.90;99.90
19106;DHT22;9685;54.338;18.672;2024-02-04T09:47:20;6.80;99.90
19106;DHT22;9685;54.338;18.672;2024-02-04T09:49:49;6.90;99.90
19106;DHT22;9685;54.338;18.672;2024-02-04T09:52:19;7.00;99.90
19106;DHT22;9685;54.338;18.672;2024-02-04T09:54:54;7.10;99.90
19106;DHT22;9685;54.338;18.672;2024-02-04T09:57:22;7.10;99.90
19106;DHT22;9685;54.338;18.672;2024-02-04T09:59:49;7.10;99.90
19106;DHT22;9685;54.338;18.672;2024-02-04T10:02:16;7.20;99.90
19106;DHT22;9685;54.338;18.672;2024-02-04T10:04:44;7.20;99.90
19106;DHT22;9685;54.338;18.672;2024-02-04T10:07:12;7.40;99.90
19106;DHT22;9685;54.338;18.672;2024-02-04T10:09:42;7.40;99.90
19106;DHT22;9685;54.338;18.672;2024-02-04T10:12:09;7.40;99.90
19106;DHT22;9685;54.338;18.672;2024-02-04T10:14:36;7.30;99.90
19106;DHT22;9685;54.338;18.672;2024-02-04T10:17:04;7.20;99.90
19106;DHT22;9685;54.338;18.672;2024-02-04T10:19:31;7.20;99.90
19106;DHT22;9685;54.338;18.672;2024-02-04T10:21:59;7.20;99.90
19106;DHT22;9685;54.338;18.672;2024-02-04T10:24:27;7.20;99.90
19106;DHT22;9685;54.338;18.672;2024-02-04T10:26:55;7.10;99.90
19106;DHT22;9685;54.338;18.672;2024-02-04T10:29:22;7.20;99.90
19106;DHT22;9685;54.338;18.672;2024-02-04T10:31:49;7.10;99.90
19106;DHT22;9685;54.338;18.672;2024-02-04T10:34:19;7.10;99.90
19106;DHT22;9685;54.338;18.672;2024-02-04T10:36:46;7.10;99.90
19106;DHT22;9685;54.338;18.672;2024-02-04T10:39:13;7.10;99.90
19106;DHT22;9685;54.338;18.672;2024-02-04T10:41:48;7.10;99.90
19106;DHT22;9685;54.338;18.672;2024-02-04T10:44:17;7.00;99.90
19106;DHT22;9685;54.338;18.672;2024-02-04T10:46:46;7.00;99.90
19106;DHT22;9685;54.338;18.672;2024-02-04T10:49:14;6.90;99.90
19106;DHT22;9685;54.338;18.672;2024-02-04T10:51:42;6.90;99.90
19106;DHT22;9685;54.338;18.672;2024-02-04T10:54:11;6.90;99.90
19106;DHT22;9685;54.338;18.672;2024-02-04T10:56:43;6.80;99.90
19106;DHT22;9685;54.338;18.672;2024-02-04T10:59:11;6.80;99.90
19106;DHT22;9685;54.338;18.672;2024-02-04T11:01:39;6.80;99.90
19106;DHT22;9685;54.338;18.672;2024-02-04T11:04:09;6.70;99.90
19106;DHT22;9685;54.338;18.672;2024-02-04T11:06:36;6.70;99.90
19106;DHT22;9685;54.338;18.672;2024-02-04T11:09:04;6.70;99.90
19106;DHT22;9685;54.338;18.672;2024-02-04T11:11:32;6.70;99.90
19106;DHT22;9685;54.338;18.672;2024-02-04T11:14:03;6.80;99.90
19106;DHT22;9685;54.338;18.672;2024-02-04T11:16:56;6.70;99.90
19106;DHT22;9685;54.338;18.672;2024-02-04T11:19:36;6.80;99.90
19106;DHT22;9685;54.338;18.672;2024-02-04T11:22:29;6.70;99.90
19106;DHT22;9685;54.338;18.672;2024-02-04T11:25:14;6.70;99.90
19106;DHT22;9685;54.338;18.672;2024-02-04T11:27:44;6.70;99.90
19106;DHT22;9685;54.338;18.672;2024-02-04T11:30:13;6.70;99.90
19106;DHT22;9685;54.338;18.672;2024-02-04T11:32:41;6.80;99.90
19106;DHT22;9685;54.338;18.672;2024-02-04T11:35:09;6.70;99.90
19106;DHT22;9685;54.338;18.672;2024-02-04T11:37:38;6.70;99.90
19106;DHT22;9685;54.338;18.672;2024-02-04T11:40:13;6.80;99.90
19106;DHT22;9685;54.338;18.672;2024-02-04T11:42:40;6.70;99.90
19106;DHT22;9685;54.338;18.672;2024-02-04T11:45:08;6.80;99.90
19106;DHT22;9685;54.338;18.672;2024-02-04T11:47:37;6.80;99.90
19106;DHT22;9685;54.338;18.672;2024-02-04T11:50:05;6.80;99.90
19106;DHT22;9685;54.338;18.672;2024-02-04T11:52:32;6.80;99.90
19106;DHT22;9685;54.338;18.672;2024-02-04T11:54:59;6.90;99.90
19106;DHT22;9685;54.338;18.672;2024-02-04T11:57:27;6.90;99.90
19106;DHT22;9685;54.338;18.672;2024-02-04T11:59:54;6.80;99.90
19106;DHT22;9685;54.338;18.672;2024-02-04T12:02:21;6.80;99.90
19106;DHT22;9685;54.338;18.672;2024-02-04T12:04:49;6.80;99.90
19106;DHT22;9685;54.338;18.672;2024-02-04T12:07:17;6.70;99.90
19106;DHT22;9685;54.338;18.672;2024-02-04T12:09:45;6.80;99.90
19106;DHT22;9685;54.338;18.672;2024-02-04T12:12:12;6.70;99.90
19106;DHT22;9685;54.338;18.672;2024-02-04T12:14:39;6.70;99.90
19106;DHT22;9685;54.338;18.672;2024-02-04T12:17:08;6.80;99.90
19106;DHT22;9685;54.338;18.672;2024-02-04T12:19:35;6.70;99.90
19106;DHT22;9685;54.338;18.672;2024-02-04T12:22:13;6.70;99.90
19106;DHT22;9685;54.338;18.672;2024-02-04T12:24:40;6.70;99.90
19106;DHT22;9685;54.338;18.672;2024-02-04T12:27:07;6.60;99.90
19106;DHT22;9685;54.338;18.672;2024-02-04T12:29:34;6.60;99.90
19106;DHT22;9685;54.338;18.672;2024-02-04T12:32:03;6.70;99.90
19106;DHT22;9685;54.338;18.672;2024-02-04T12:34:31;6.70;99.90
19106;DHT22;9685;54.338;18.672;2024-02-04T12:36:59;6.70;99.90
19106;DHT22;9685;54.338;18.672;2024-02-04T12:39:28;6.70;99.90
19106;DHT22;9685;54.338;18.672;2024-02-04T12:41:58;6.70;99.90
19106;DHT22;9685;54.338;18.672;2024-02-04T12:44:25;6.80;99.90
19106;DHT22;9685;54.338;18.672;2024-02-04T12:46:52;6.80;99.90
19106;DHT22;9685;54.338;18.672;2024-02-04T12:49:20;6.70;99.90
19106;DHT22;9685;54.338;18.672;2024-02-04T12:51:47;6.70;99.90
19106;DHT22;9685;54.338;18.672;2024-02-04T12:54:14;6.80;99.90
19106;DHT22;9685;54.338;18.672;2024-02-04T12:56:45;6.80;99.90
19106;DHT22;9685;54.338;18.672;2024-02-04T12:59:22;6.90;99.90
19106;DHT22;9685;54.338;18.672;2024-02-04T13:01:52;6.80;99.90
19106;DHT22;9685;54.338;18.672;2024-02-04T13:04:20;6.90;99.90
19106;DHT22;9685;54.338;18.672;2024-02-04T13:06:47;6.90;99.90
19106;DHT22;9685;54.338;18.672;2024-02-04T13:09:14;6.90;99.90
19106;DHT22;9685;54.338;18.672;2024-02-04T13:11:43;6.90;99.90
19106;DHT22;9685;54.338;18.672;2024-02-04T13:14:10;6.90;99.90
19106;DHT22;9685;54.338;18.672;2024-02-04T13:16:37;6.90;99.90
19106;DHT22;9685;54.338;18.672;2024-02-04T13:19:05;6.90;99.90
19106;DHT22;9685;54.338;18.672;2024-02-04T13:21:33;6.90;99.90
19106;DHT22;9685;54.338;18.672;2024-02-04T13:24:00;7.00;99.90
19106;DHT22;9685;54.338;18.672;2024-02-04T13:26:27;7.00;99.90
19106;DHT22;9685;54.338;18.672;2024-02-04T13:28:55;7.00;99.90
19106;DHT22;9685;54.338;18.672;2024-02-04T13:31:22;7.00;99.90
19106;DHT22;9685;54.338;18.672;2024-02-04T13:33:49;6.90;99.90
19106;DHT22;9685;54.338;18.672;2024-02-04T13:36:16;6.90;99.90
19106;DHT22;9685;54.338;18.672;2024-02-04T13:38:43;7.00;99.90
19106;DHT22;9685;54.338;18.672;2024-02-04T13:41:09;6.90;99.90
19106;DHT22;9685;54.338;18.672;2024-02-04T13:43:36;6.90;99.90
19106;DHT22;9685;54.338;18.672;2024-02-04T13:46:05;6.80;99.90
19106;DHT22;9685;54.338;18.672;2024-02-04T13:48:32;6.80;99.90
19106;DHT22;9685;54.338;18.672;2024-02-04T13:50:59;6.70;99.90
19106;DHT22;9685;54.338;18.672;2024-02-04T13:53:25;6.60;99.90
19106;DHT22;9685;54.338;18.672;2024-02-04T13:55:52;6.70;99.90
19106;DHT22;9685;54.338;18.672;2024-02-04T13:58:19;6.70;99.90
19106;DHT22;9685;54.338;18.672;2024-02-04T14:00:48;6.70;99.90
19106;DHT22;9685;54.338;18.672;2024-02-04T14:03:16;6.70;99.90
19106;DHT22;9685;54.338;18.672;2024-02-04T14:05:44;6.80;99.90
19106;DHT22;9685;54.338;18.672;2024-02-04T14:08:11;6.80;99.90
19106;DHT22;9685;54.338;18.672;2024-02-04T14:10:39;6.90;99.90
19106;DHT22;9685;54.338;18.672;2024-02-04T14:13:06;6.90;99.90
19106;DHT22;9685;54.338;18.672;2024-02-04T14:15:33;6.90;99.90
19106;DHT22;9685;54.338;18.672;2024-02-04T14:18:00;6.90;99.90
19106;DHT22;9685;54.338;18.672;2024-02-04T14:20:29;7.00;99.90
19106;DHT22;9685;54.338;18.672;2024-02-04T14:22:56;7.10;99.90
19106;DHT22;9685;54.338;18.672;2024-02-04T14:25:23;7.10;99.90
19106;DHT22;9685;54.338;18.672;2024-02-04T14:27:50;7.10;99.90
19106;DHT22;9685;54.338;18.672;2024-02-04T14:30:17;7.20;99.90
19106;DHT22;9685;54.338;18.672;2024-02-04T14:32:45;7.30;99.90
19106;DHT22;9685;54.338;18.672;2024-02-04T14:35:11;7.20;99.90
19106;DHT22;9685;54.338;18.672;2024-02-04T14:37:40;7.20;99.90
19106;DHT22;9685;54.338;18.672;2024-02-04T14:40:09;7.30;99.90
19106;DHT22;9685;54.338;18.672;2024-02-04T14:42:36;7.20;99.90
19106;DHT22;9685;54.338;18.672;2024-02-04T14:45:03;7.10;99.90
19106;DHT22;9685;54.338;18.672;2024-02-04T14:47:31;7.10;99.90
19106;DHT22;9685;54.338;18.672;2024-02-04T14:49:58;7.00;99.90
19106;DHT22;9685;54.338;18.672;2024-02-04T14:52:25;6.90;99.90
19106;DHT22;9685;54.338;18.672;2024-02-04T14:54:53;7.00;99.90
19106;DHT22;9685;54.338;18.672;2024-02-04T14:57:20;7.00;99.90
19106;DHT22;9685;54.338;18.672;2024-02-04T14:59:47;6.90;99.90
19106;DHT22;9685;54.338;18.672;2024-02-04T15:02:14;7.10;99.90
19106;DHT22;9685;54.338;18.672;2024-02-04T15:04:41;7.20;99.90
19106;DHT22;9685;54.338;18.672;2024-02-04T15:07:08;7.30;99.90
19106;DHT22;9685;54.338;18.672;2024-02-04T15:09:35;7.30;99.90
19106;DHT22;9685;54.338;18.672;2024-02-04T15:12:04;7.30;99.90
19106;DHT22;9685;54.338;18.672;2024-02-04T15:14:31;7.30;99.90
19106;DHT22;9685;54.338;18.672;2024-02-04T15:16:59;7.20;99.90
19106;DHT22;9685;54.338;18.672;2024-02-04T15:19:27;7.20;99.90
19106;DHT22;9685;54.338;18.672;2024-02-04T15:21:56;7.10;99.90
19106;DHT22;9685;54.338;18.672;2024-02-04T15:24:23;7.10;99.90
19106;DHT22;9685;54.338;18.672;2024-02-04T15:26:52;7.00;99.90
19106;DHT22;9685;54.338;18.672;2024-02-04T15:29:20;7.00;99.90
19106;DHT22;9685;54.338;18.672;2024-02-04T15:31:48;7.00;99.90
19106;DHT22;9685;54.338;18.672;2024-02-04T15:34:15;7.00;99.90
19106;DHT22;9685;54.338;18.672;2024-02-04T15:36:42;7.00;99.90
19106;DHT22;9685;54.338;18.672;2024-02-04T15:39:10;7.20;99.90
19106;DHT22;9685;54.338;18.672;2024-02-04T15:41:37;7.20;99.90
19106;DHT22;9685;54.338;18.672;2024-02-04T15:44:05;7.20;99.90
19106;DHT22;9685;54.338;18.672;2024-02-04T15:46:34;7.30;99.90
19106;DHT22;9685;54.338;18.672;2024-02-04T15:49:02;7.40;99.90